sensor_id;sensor_type;location;lat;lon;timestamp;P1;durP1;ratioP1;P2;durP2;ratioP2
11829;SDS011;5972;42.134;24.718;2024-02-28T00:01:04;19.87;;;8.77;;
11829;SDS011;5972;42.134;24.718;2024-02-28T00:03:33;17.77;;;8.03;;
11829;SDS011;5972;42.134;24.718;2024-02-28T00:06:08;15.47;;;7.20;;
11829;SDS011;5972;42.134;24.718;2024-02-28T00:08:36;22.40;;;7.53;;
11829;SDS011;5972;42.134;24.718;2024-02-28T00:11:07;16.77;;;7.57;;
11829;SDS011;5972;42.134;24.718;2024-02-28T00:13:37;22.00;;;7.60;;
11829;SDS011;5972;42.134;24.718;2024-02-28T00:18:47;22.40;;;8.07;;
11829;SDS011;5972;42.134;24.718;2024-02-28T00:21:15;25.53;;;8.17;;
11829;SDS011;5972;42.134;24.718;2024-02-28T00:23:43;17.93;;;7.73;;
11829;SDS011;5972;42.134;24.718;2024-02-28T00:26:13;18.60;;;7.53;;
11829;SDS011;5972;42.134;24.718;2024-02-28T00:28:40;17.00;;;8.27;;
11829;SDS011;5972;42.134;24.718;2024-02-28T00:31:12;17.60;;;7.50;;
11829;SDS011;5972;42.134;24.718;2024-02-28T00:33:42;22.30;;;8.53;;
11829;SDS011;5972;42.134;24.718;2024-02-28T00:36:12;18.50;;;8.00;;
11829;SDS011;5972;42.134;24.718;2024-02-28T00:38:43;18.47;;;8.30;;
11829;SDS011;5972;42.134;24.718;2024-02-28T00:41:10;18.10;;;8.20;;
11829;SDS011;5972;42.134;24.718;2024-02-28T00:44:08;22.17;;;8.87;;
11829;SDS011;5972;42.134;24.718;2024-02-28T00:46:25;24.57;;;8.70;;
11829;SDS011;5972;42.134;24.718;2024-02-28T00:49:00;26.20;;;8.40;;
11829;SDS011;5972;42.134;24.718;2024-02-28T00:51:27;24.43;;;8.83;;
11829;SDS011;5972;42.134;24.718;2024-02-28T00:53:54;19.43;;;8.27;;
11829;SDS011;5972;42.134;24.718;2024-02-28T00:56:23;25.37;;;9.27;;
11829;SDS011;5972;42.134;24.718;2024-02-28T00:58:52;18.07;;;8.80;;
11829;SDS011;5972;42.134;24.718;2024-02-28T01:01:22;19.20;;;8.23;;
11829;SDS011;5972;42.134;24.718;2024-02-28T01:03:52;21.50;;;8.63;;
11829;SDS011;5972;42.134;24.718;2024-02-28T01:06:23;25.10;;;8.63;;
11829;SDS011;5972;42.134;24.718;2024-02-28T01:08:51;23.77;;;8.33;;
11829;SDS011;5972;42.134;24.718;2024-02-28T01:11:18;21.50;;;8.60;;
11829;SDS011;5972;42.134;24.718;2024-02-28T01:13:47;17.73;;;8.40;;
11829;SDS011;5972;42.134;24.718;2024-02-28T01:16:20;19.40;;;8.23;;
11829;SDS011;5972;42.134;24.718;2024-02-28T01:18:48;17.80;;;8.47;;
11829;SDS011;5972;42.134;24.718;2024-02-28T01:21:25;21.90;;;9.10;;
11829;SDS011;5972;42.134;24.718;2024-02-28T01:23:52;16.20;;;8.17;;
11829;SDS011;5972;42.134;24.718;2024-02-28T01:26:19;19.47;;;8.77;;
11829;SDS011;5972;42.134;24.718;2024-02-28T01:28:50;20.17;;;8.70;;
11829;SDS011;5972;42.134;24.718;2024-02-28T01:31:17;21.53;;;9.60;;
11829;SDS011;5972;42.134;24.718;2024-02-28T01:33:46;21.97;;;8.77;;
11829;SDS011;5972;42.134;24.718;2024-02-28T01:36:13;18.10;;;8.60;;
11829;SDS011;5972;42.134;24.718;2024-02-28T01:38:44;21.53;;;8.13;;
11829;SDS011;5972;42.134;24.718;2024-02-28T01:41:14;16.57;;;8.53;;
11829;SDS011;5972;42.134;24.718;2024-02-28T01:43:42;20.90;;;8.10;;
11829;SDS011;5972;42.134;24.718;2024-02-28T01:46:17;22.13;;;8.57;;
11829;SDS011;5972;42.134;24.718;2024-02-28T01:48:49;13.37;;;7.33;;
11829;SDS011;5972;42.134;24.718;2024-02-28T01:51:22;22.57;;;8.50;;
11829;SDS011;5972;42.134;24.718;2024-02-28T01:53:54;15.57;;;7.40;;
11829;SDS011;5972;42.134;24.718;2024-02-28T01:56:23;19.60;;;7.63;;
11829;SDS011;5972;42.134;24.718;2024-02-28T01:58:54;22.57;;;7.77;;
11829;SDS011;5972;42.134;24.718;2024-02-28T02:01:26;18.13;;;7.83;;
11829;SDS011;5972;42.134;24.718;2024-02-28T02:04:03;14.67;;;7.20;;
11829;SDS011;5972;42.134;24.718;2024-02-28T02:06:31;17.83;;;7.90;;
11829;SDS011;5972;42.134;24.718;2024-02-28T02:09:00;22.23;;;7.67;;
11829;SDS011;5972;42.134;24.718;2024-02-28T02:11:28;20.90;;;8.17;;
11829;SDS011;5972;42.134;24.718;2024-02-28T02:13:58;18.47;;;7.93;;
11829;SDS011;5972;42.134;24.718;2024-02-28T02:16:27;20.30;;;7.97;;
11829;SDS011;5972;42.134;24.718;2024-02-28T02:18:55;18.93;;;7.90;;
11829;SDS011;5972;42.134;24.718;2024-02-28T02:21:23;20.10;;;7.93;;
11829;SDS011;5972;42.134;24.718;2024-02-28T02:23:54;22.93;;;8.20;;
11829;SDS011;5972;42.134;24.718;2024-02-28T02:26:24;24.03;;;8.70;;
11829;SDS011;5972;42.134;24.718;2024-02-28T02:28:51;16.47;;;7.30;;
11829;SDS011;5972;42.134;24.718;2024-02-28T02:31:18;15.67;;;8.30;;
11829;SDS011;5972;42.134;24.718;2024-02-28T02:33:47;16.27;;;7.33;;
11829;SDS011;5972;42.134;24.718;2024-02-28T02:36:15;18.90;;;7.60;;
11829;SDS011;5972;42.134;24.718;2024-02-28T02:38:44;17.87;;;8.27;;
11829;SDS011;5972;42.134;24.718;2024-02-28T02:41:17;23.17;;;8.00;;
11829;SDS011;5972;42.134;24.718;2024-02-28T02:43:45;19.90;;;7.37;;
11829;SDS011;5972;42.134;24.718;2024-02-28T02:46:12;20.97;;;7.97;;
11829;SDS011;5972;42.134;24.718;2024-02-28T02:48:39;19.13;;;8.03;;
11829;SDS011;5972;42.134;24.718;2024-02-28T02:51:07;17.67;;;7.70;;
11829;SDS011;5972;42.134;24.718;2024-02-28T02:53:43;15.40;;;7.67;;
11829;SDS011;5972;42.134;24.718;2024-02-28T02:56:14;25.33;;;7.83;;
11829;SDS011;5972;42.134;24.718;2024-02-28T02:58:41;20.63;;;8.20;;
11829;SDS011;5972;42.134;24.718;2024-02-28T03:01:10;24.37;;;7.57;;
11829;SDS011;5972;42.134;24.718;2024-02-28T03:03:39;20.20;;;8.27;;
11829;SDS011;5972;42.134;24.718;2024-02-28T03:06:07;17.53;;;7.73;;
11829;SDS011;5972;42.134;24.718;2024-02-28T03:08:35;23.43;;;8.13;;
11829;SDS011;5972;42.134;24.718;2024-02-28T03:11:04;20.13;;;7.63;;
11829;SDS011;5972;42.134;24.718;2024-02-28T03:13:35;20.40;;;7.70;;
11829;SDS011;5972;42.134;24.718;2024-02-28T03:16:03;20.40;;;8.40;;
11829;SDS011;5972;42.134;24.718;2024-02-28T03:18:30;15.73;;;7.30;;
11829;SDS011;5972;42.134;24.718;2024-02-28T03:20:58;18.73;;;8.30;;
11829;SDS011;5972;42.134;24.718;2024-02-28T03:23:27;19.73;;;8.40;;
11829;SDS011;5972;42.134;24.718;2024-02-28T03:25:55;16.20;;;7.73;;
11829;SDS011;5972;42.134;24.718;2024-02-28T03:28:24;16.03;;;8.10;;
11829;SDS011;5972;42.134;24.718;2024-02-28T03:30:53;24.07;;;8.47;;
11829;SDS011;5972;42.134;24.718;2024-02-28T03:33:20;22.23;;;9.17;;
11829;SDS011;5972;42.134;24.718;2024-02-28T03:35:50;21.93;;;9.67;;
11829;SDS011;5972;42.134;24.718;2024-02-28T03:38:19;20.13;;;8.53;;
11829;SDS011;5972;42.134;24.718;2024-02-28T03:40:48;25.23;;;9.43;;
11829;SDS011;5972;42.134;24.718;2024-02-28T03:43:18;17.73;;;8.53;;
11829;SDS011;5972;42.134;24.718;2024-02-28T03:45:45;21.20;;;9.07;;
11829;SDS011;5972;42.134;24.718;2024-02-28T03:48:17;23.73;;;9.77;;
11829;SDS011;5972;42.134;24.718;2024-02-28T03:50:45;21.30;;;9.43;;
11829;SDS011;5972;42.134;24.718;2024-02-28T03:53:16;19.73;;;9.17;;
11829;SDS011;5972;42.134;24.718;2024-02-28T03:55:43;23.47;;;8.77;;
11829;SDS011;5972;42.134;24.718;2024-02-28T03:58:13;26.33;;;9.80;;
11829;SDS011;5972;42.134;24.718;2024-02-28T04:00:42;26.10;;;9.70;;
11829;SDS011;5972;42.134;24.718;2024-02-28T04:03:09;22.23;;;8.80;;
11829;SDS011;5972;42.134;24.718;2024-02-28T04:05:41;22.57;;;9.00;;
11829;SDS011;5972;42.134;24.718;2024-02-28T04:08:08;24.03;;;9.27;;
11829;SDS011;5972;42.134;24.718;2024-02-28T04:10:42;21.27;;;9.73;;
11829;SDS011;5972;42.134;24.718;2024-02-28T04:13:09;22.50;;;9.60;;
11829;SDS011;5972;42.134;24.718;2024-02-28T04:15:38;20.40;;;9.77;;
11829;SDS011;5972;42.134;24.718;2024-02-28T04:18:05;27.17;;;10.60;;
11829;SDS011;5972;42.134;24.718;2024-02-28T04:20:38;27.23;;;10.67;;
11829;SDS011;5972;42.134;24.718;2024-02-28T04:23:11;21.37;;;10.40;;
11829;SDS011;5972;42.134;24.718;2024-02-28T04:25:40;25.30;;;10.40;;
11829;SDS011;5972;42.134;24.718;2024-02-28T04:28:09;25.20;;;11.30;;
11829;SDS011;5972;42.134;24.718;2024-02-28T04:30:39;22.23;;;11.27;;
11829;SDS011;5972;42.134;24.718;2024-02-28T04:33:07;22.57;;;11.47;;
11829;SDS011;5972;42.134;24.718;2024-02-28T04:35:37;23.30;;;11.30;;
11829;SDS011;5972;42.134;24.718;2024-02-28T04:38:23;25.67;;;11.73;;
11829;SDS011;5972;42.134;24.718;2024-02-28T04:40:50;25.17;;;12.33;;
11829;SDS011;5972;42.134;24.718;2024-02-28T04:43:17;27.13;;;13.37;;
11829;SDS011;5972;42.134;24.718;2024-02-28T04:45:44;32.87;;;13.40;;
11829;SDS011;5972;42.134;24.718;2024-02-28T04:48:15;35.17;;;15.63;;
11829;SDS011;5972;42.134;24.718;2024-02-28T04:50:47;31.50;;;15.93;;
11829;SDS011;5972;42.134;24.718;2024-02-28T04:53:14;35.17;;;18.57;;
11829;SDS011;5972;42.134;24.718;2024-02-28T04:55:45;33.37;;;20.43;;
11829;SDS011;5972;42.134;24.718;2024-02-28T04:58:26;39.87;;;21.40;;
11829;SDS011;5972;42.134;24.718;2024-02-28T05:01:00;34.97;;;21.33;;
11829;SDS011;5972;42.134;24.718;2024-02-28T05:03:28;35.47;;;22.03;;
11829;SDS011;5972;42.134;24.718;2024-02-28T05:05:57;41.40;;;23.90;;
11829;SDS011;5972;42.134;24.718;2024-02-28T05:08:25;34.07;;;23.53;;
11829;SDS011;5972;42.134;24.718;2024-02-28T05:10:55;38.93;;;24.10;;
11829;SDS011;5972;42.134;24.718;2024-02-28T05:13:22;39.23;;;23.43;;
11829;SDS011;5972;42.134;24.718;2024-02-28T05:16:25;38.73;;;21.63;;
11829;SDS011;5972;42.134;24.718;2024-02-28T05:18:57;35.60;;;20.40;;
11829;SDS011;5972;42.134;24.718;2024-02-28T05:21:25;40.30;;;21.40;;
11829;SDS011;5972;42.134;24.718;2024-02-28T05:23:53;35.97;;;20.97;;
11829;SDS011;5972;42.134;24.718;2024-02-28T05:26:21;33.93;;;20.63;;
11829;SDS011;5972;42.134;24.718;2024-02-28T05:28:49;40.07;;;21.03;;
11829;SDS011;5972;42.134;24.718;2024-02-28T05:31:21;28.90;;;20.73;;
11829;SDS011;5972;42.134;24.718;2024-02-28T05:33:50;35.27;;;21.00;;
11829;SDS011;5972;42.134;24.718;2024-02-28T05:36:19;37.33;;;20.47;;
11829;SDS011;5972;42.134;24.718;2024-02-28T05:38:46;36.80;;;21.07;;
11829;SDS011;5972;42.134;24.718;2024-02-28T05:41:16;32.63;;;20.00;;
11829;SDS011;5972;42.134;24.718;2024-02-28T05:43:46;36.07;;;21.33;;
11829;SDS011;5972;42.134;24.718;2024-02-28T05:46:14;32.37;;;20.50;;
11829;SDS011;5972;42.134;24.718;2024-02-28T05:48:42;35.30;;;20.23;;
11829;SDS011;5972;42.134;24.718;2024-02-28T05:51:11;33.07;;;20.03;;
11829;SDS011;5972;42.134;24.718;2024-02-28T05:53:46;31.17;;;19.97;;
11829;SDS011;5972;42.134;24.718;2024-02-28T05:56:17;29.90;;;20.03;;
11829;SDS011;5972;42.134;24.718;2024-02-28T05:58:51;32.83;;;19.87;;
11829;SDS011;5972;42.134;24.718;2024-02-28T06:01:21;36.30;;;20.37;;
11829;SDS011;5972;42.134;24.718;2024-02-28T06:03:50;31.87;;;20.30;;
11829;SDS011;5972;42.134;24.718;2024-02-28T06:06:17;36.37;;;20.23;;
11829;SDS011;5972;42.134;24.718;2024-02-28T06:08:47;35.80;;;20.83;;
11829;SDS011;5972;42.134;24.718;2024-02-28T06:11:15;34.00;;;20.47;;
11829;SDS011;5972;42.134;24.718;2024-02-28T06:13:42;35.17;;;19.90;;
11829;SDS011;5972;42.134;24.718;2024-02-28T06:16:15;36.87;;;20.30;;
11829;SDS011;5972;42.134;24.718;2024-02-28T06:18:43;34.27;;;19.63;;
11829;SDS011;5972;42.134;24.718;2024-02-28T06:21:21;30.37;;;20.07;;
11829;SDS011;5972;42.134;24.718;2024-02-28T06:23:54;34.57;;;20.17;;
11829;SDS011;5972;42.134;24.718;2024-02-28T06:26:22;35.63;;;20.00;;
11829;SDS011;5972;42.134;24.718;2024-02-28T06:28:50;41.58;;;20.05;;
11829;SDS011;5972;42.134;24.718;2024-02-28T06:31:19;39.40;;;20.45;;
11829;SDS011;5972;42.134;24.718;2024-02-28T06:33:46;43.67;;;19.85;;
11829;SDS011;5972;42.134;24.718;2024-02-28T06:36:13;34.28;;;19.73;;
11829;SDS011;5972;42.134;24.718;2024-02-28T06:38:41;38.03;;;18.92;;
11829;SDS011;5972;42.134;24.718;2024-02-28T06:41:08;32.63;;;18.88;;
11829;SDS011;5972;42.134;24.718;2024-02-28T06:43:35;32.85;;;19.67;;
11829;SDS011;5972;42.134;24.718;2024-02-28T06:46:02;32.42;;;19.63;;
11829;SDS011;5972;42.134;24.718;2024-02-28T06:48:31;38.55;;;20.33;;
11829;SDS011;5972;42.134;24.718;2024-02-28T06:50:58;40.83;;;19.65;;
11829;SDS011;5972;42.134;24.718;2024-02-28T06:53:25;33.22;;;19.10;;
11829;SDS011;5972;42.134;24.718;2024-02-28T06:55:53;36.65;;;19.10;;
11829;SDS011;5972;42.134;24.718;2024-02-28T06:58:22;37.25;;;18.42;;
11829;SDS011;5972;42.134;24.718;2024-02-28T07:00:50;27.83;;;17.35;;
11829;SDS011;5972;42.134;24.718;2024-02-28T07:03:19;29.05;;;18.00;;
11829;SDS011;5972;42.134;24.718;2024-02-28T07:05:51;36.22;;;17.65;;
11829;SDS011;5972;42.134;24.718;2024-02-28T07:08:23;34.88;;;18.70;;
11829;SDS011;5972;42.134;24.718;2024-02-28T07:10:51;34.63;;;18.83;;
11829;SDS011;5972;42.134;24.718;2024-02-28T07:13:19;35.97;;;18.27;;
11829;SDS011;5972;42.134;24.718;2024-02-28T07:15:46;36.90;;;18.38;;
11829;SDS011;5972;42.134;24.718;2024-02-28T07:18:14;35.75;;;18.83;;
11829;SDS011;5972;42.134;24.718;2024-02-28T07:20:41;34.17;;;18.45;;
11829;SDS011;5972;42.134;24.718;2024-02-28T07:23:10;33.05;;;18.42;;
11829;SDS011;5972;42.134;24.718;2024-02-28T07:25:37;32.22;;;18.15;;
11829;SDS011;5972;42.134;24.718;2024-02-28T07:28:08;37.85;;;19.73;;
11829;SDS011;5972;42.134;24.718;2024-02-28T07:30:39;40.72;;;19.27;;
11829;SDS011;5972;42.134;24.718;2024-02-28T07:33:10;42.72;;;19.95;;
11829;SDS011;5972;42.134;24.718;2024-02-28T07:35:43;32.70;;;19.23;;
11829;SDS011;5972;42.134;24.718;2024-02-28T07:38:12;34.15;;;20.33;;
11829;SDS011;5972;42.134;24.718;2024-02-28T07:40:45;33.85;;;20.02;;
11829;SDS011;5972;42.134;24.718;2024-02-28T07:43:14;38.15;;;19.92;;
11829;SDS011;5972;42.134;24.718;2024-02-28T07:45:42;37.95;;;19.92;;
11829;SDS011;5972;42.134;24.718;2024-02-28T07:48:09;39.85;;;20.33;;
11829;SDS011;5972;42.134;24.718;2024-02-28T07:50:38;34.17;;;19.45;;
11829;SDS011;5972;42.134;24.718;2024-02-28T07:53:08;38.88;;;19.45;;
11829;SDS011;5972;42.134;24.718;2024-02-28T07:55:41;33.28;;;19.05;;
11829;SDS011;5972;42.134;24.718;2024-02-28T07:58:10;36.70;;;18.70;;
11829;SDS011;5972;42.134;24.718;2024-02-28T08:00:37;41.08;;;19.70;;
11829;SDS011;5972;42.134;24.718;2024-02-28T08:03:09;36.25;;;20.10;;
11829;SDS011;5972;42.134;24.718;2024-02-28T08:05:37;48.72;;;19.67;;
11829;SDS011;5972;42.134;24.718;2024-02-28T08:08:06;40.08;;;19.83;;
11829;SDS011;5972;42.134;24.718;2024-02-28T08:10:37;35.08;;;19.10;;
11829;SDS011;5972;42.134;24.718;2024-02-28T08:13:08;32.30;;;19.27;;
11829;SDS011;5972;42.134;24.718;2024-02-28T08:15:35;32.95;;;18.27;;
11829;SDS011;5972;42.134;24.718;2024-02-28T08:18:05;28.33;;;18.30;;
11829;SDS011;5972;42.134;24.718;2024-02-28T08:20:32;23.35;;;16.83;;
11829;SDS011;5972;42.134;24.718;2024-02-28T08:22:59;31.38;;;19.45;;
11829;SDS011;5972;42.134;24.718;2024-02-28T08:25:26;32.90;;;18.38;;
11829;SDS011;5972;42.134;24.718;2024-02-28T08:27:55;33.00;;;19.77;;
11829;SDS011;5972;42.134;24.718;2024-02-28T08:30:27;39.13;;;20.45;;
11829;SDS011;5972;42.134;24.718;2024-02-28T08:32:58;39.55;;;19.50;;
11829;SDS011;5972;42.134;24.718;2024-02-28T08:35:27;30.73;;;20.40;;
11829;SDS011;5972;42.134;24.718;2024-02-28T08:38:00;38.28;;;20.25;;
11829;SDS011;5972;42.134;24.718;2024-02-28T08:40:28;42.40;;;19.23;;
11829;SDS011;5972;42.134;24.718;2024-02-28T08:42:55;26.40;;;16.50;;
11829;SDS011;5972;42.134;24.718;2024-02-28T08:45:22;34.50;;;16.75;;
11829;SDS011;5972;42.134;24.718;2024-02-28T08:47:51;27.17;;;17.27;;
11829;SDS011;5972;42.134;24.718;2024-02-28T08:50:19;37.47;;;17.13;;
11829;SDS011;5972;42.134;24.718;2024-02-28T08:52:48;30.13;;;16.17;;
11829;SDS011;5972;42.134;24.718;2024-02-28T08:55:24;24.63;;;15.18;;
11829;SDS011;5972;42.134;24.718;2024-02-28T08:57:56;24.88;;;15.55;;
11829;SDS011;5972;42.134;24.718;2024-02-28T09:00:27;23.98;;;14.63;;
11829;SDS011;5972;42.134;24.718;2024-02-28T09:02:54;29.25;;;15.18;;
11829;SDS011;5972;42.134;24.718;2024-02-28T09:05:23;27.10;;;15.27;;
11829;SDS011;5972;42.134;24.718;2024-02-28T09:07:52;23.02;;;14.23;;
11829;SDS011;5972;42.134;24.718;2024-02-28T09:10:25;30.10;;;15.15;;
11829;SDS011;5972;42.134;24.718;2024-02-28T09:12:59;26.35;;;15.57;;
11829;SDS011;5972;42.134;24.718;2024-02-28T09:15:33;33.20;;;16.83;;
11829;SDS011;5972;42.134;24.718;2024-02-28T09:18:06;25.52;;;13.70;;
11829;SDS011;5972;42.134;24.718;2024-02-28T09:20:36;32.42;;;16.08;;
11829;SDS011;5972;42.134;24.718;2024-02-28T09:23:17;26.98;;;14.77;;
11829;SDS011;5972;42.134;24.718;2024-02-28T09:25:51;22.63;;;14.70;;
11829;SDS011;5972;42.134;24.718;2024-02-28T09:28:30;30.15;;;15.65;;
11829;SDS011;5972;42.134;24.718;2024-02-28T09:31:06;34.75;;;16.25;;
11829;SDS011;5972;42.134;24.718;2024-02-28T09:33:34;32.95;;;16.60;;
11829;SDS011;5972;42.134;24.718;2024-02-28T09:36:05;29.45;;;16.85;;
11829;SDS011;5972;42.134;24.718;2024-02-28T09:38:35;30.05;;;17.05;;
11829;SDS011;5972;42.134;24.718;2024-02-28T09:41:19;31.67;;;15.73;;
11829;SDS011;5972;42.134;24.718;2024-02-28T09:43:59;25.98;;;15.05;;
11829;SDS011;5972;42.134;24.718;2024-02-28T09:46:41;34.60;;;16.05;;
11829;SDS011;5972;42.134;24.718;2024-02-28T09:49:08;23.90;;;15.13;;
11829;SDS011;5972;42.134;24.718;2024-02-28T09:51:36;26.23;;;15.48;;
11829;SDS011;5972;42.134;24.718;2024-02-28T09:54:06;27.85;;;14.75;;
11829;SDS011;5972;42.134;24.718;2024-02-28T09:56:35;32.58;;;15.60;;
11829;SDS011;5972;42.134;24.718;2024-02-28T09:59:03;19.42;;;13.93;;
11829;SDS011;5972;42.134;24.718;2024-02-28T10:01:36;20.73;;;12.70;;
11829;SDS011;5972;42.134;24.718;2024-02-28T10:04:14;18.67;;;12.18;;
11829;SDS011;5972;42.134;24.718;2024-02-28T10:06:44;21.27;;;12.82;;
11829;SDS011;5972;42.134;24.718;2024-02-28T10:09:15;25.23;;;13.05;;
11829;SDS011;5972;42.134;24.718;2024-02-28T10:11:42;21.60;;;13.63;;
11829;SDS011;5972;42.134;24.718;2024-02-28T10:14:19;31.75;;;14.02;;
11829;SDS011;5972;42.134;24.718;2024-02-28T10:16:47;25.50;;;13.38;;
11829;SDS011;5972;42.134;24.718;2024-02-28T10:19:21;26.25;;;14.15;;
11829;SDS011;5972;42.134;24.718;2024-02-28T10:21:56;22.17;;;13.27;;
11829;SDS011;5972;42.134;24.718;2024-02-28T10:24:25;18.75;;;12.88;;
11829;SDS011;5972;42.134;24.718;2024-02-28T10:27:07;16.92;;;13.13;;
11829;SDS011;5972;42.134;24.718;2024-02-28T10:29:38;22.52;;;13.68;;
11829;SDS011;5972;42.134;24.718;2024-02-28T10:32:08;22.58;;;14.40;;
11829;SDS011;5972;42.134;24.718;2024-02-28T10:34:38;27.48;;;14.32;;
11829;SDS011;5972;42.134;24.718;2024-02-28T10:37:06;23.23;;;15.15;;
11829;SDS011;5972;42.134;24.718;2024-02-28T10:39:37;24.83;;;13.93;;
11829;SDS011;5972;42.134;24.718;2024-02-28T10:42:15;20.50;;;14.73;;
11829;SDS011;5972;42.134;24.718;2024-02-28T10:44:43;24.75;;;15.57;;
11829;SDS011;5972;42.134;24.718;2024-02-28T10:47:10;28.13;;;15.43;;
11829;SDS011;5972;42.134;24.718;2024-02-28T10:49:42;22.23;;;15.10;;
11829;SDS011;5972;42.134;24.718;2024-02-28T10:52:12;27.55;;;14.70;;
11829;SDS011;5972;42.134;24.718;2024-02-28T10:54:41;26.30;;;13.82;;
11829;SDS011;5972;42.134;24.718;2024-02-28T10:57:14;28.88;;;14.30;;
11829;SDS011;5972;42.134;24.718;2024-02-28T10:59:47;21.60;;;14.05;;
11829;SDS011;5972;42.134;24.718;2024-02-28T11:02:15;25.30;;;14.30;;
11829;SDS011;5972;42.134;24.718;2024-02-28T11:04:45;24.33;;;13.50;;
11829;SDS011;5972;42.134;24.718;2024-02-28T11:07:19;21.67;;;13.45;;
11829;SDS011;5972;42.134;24.718;2024-02-28T11:09:47;20.27;;;13.05;;
11829;SDS011;5972;42.134;24.718;2024-02-28T11:12:24;23.55;;;13.70;;
11829;SDS011;5972;42.134;24.718;2024-02-28T11:15:02;23.67;;;13.55;;
11829;SDS011;5972;42.134;24.718;2024-02-28T11:17:36;25.17;;;13.55;;
11829;SDS011;5972;42.134;24.718;2024-02-28T11:20:16;21.17;;;13.15;;
11829;SDS011;5972;42.134;24.718;2024-02-28T11:22:48;24.08;;;13.40;;
11829;SDS011;5972;42.134;24.718;2024-02-28T11:25:33;24.00;;;13.85;;
11829;SDS011;5972;42.134;24.718;2024-02-28T11:28:03;19.20;;;11.85;;
11829;SDS011;5972;42.134;24.718;2024-02-28T11:30:40;28.15;;;13.45;;
11829;SDS011;5972;42.134;24.718;2024-02-28T11:33:10;22.38;;;12.32;;
11829;SDS011;5972;42.134;24.718;2024-02-28T11:35:45;17.65;;;12.32;;
11829;SDS011;5972;42.134;24.718;2024-02-28T11:39:01;29.58;;;13.15;;
11829;SDS011;5972;42.134;24.718;2024-02-28T11:41:33;22.05;;;12.10;;
11829;SDS011;5972;42.134;24.718;2024-02-28T11:44:04;20.08;;;12.23;;
11829;SDS011;5972;42.134;24.718;2024-02-28T11:46:32;21.63;;;11.70;;
11829;SDS011;5972;42.134;24.718;2024-02-28T11:49:01;19.80;;;12.48;;
11829;SDS011;5972;42.134;24.718;2024-02-28T11:51:30;19.98;;;11.88;;
11829;SDS011;5972;42.134;24.718;2024-02-28T11:53:57;18.40;;;11.85;;
11829;SDS011;5972;42.134;24.718;2024-02-28T11:56:32;22.02;;;12.18;;
11829;SDS011;5972;42.134;24.718;2024-02-28T11:58:59;21.30;;;11.57;;
11829;SDS011;5972;42.134;24.718;2024-02-28T12:01:35;20.10;;;11.82;;
11829;SDS011;5972;42.134;24.718;2024-02-28T12:04:03;18.23;;;11.27;;
11829;SDS011;5972;42.134;24.718;2024-02-28T12:06:46;19.05;;;11.25;;
11829;SDS011;5972;42.134;24.718;2024-02-28T12:09:14;22.80;;;11.23;;
11829;SDS011;5972;42.134;24.718;2024-02-28T12:11:44;19.55;;;11.73;;
11829;SDS011;5972;42.134;24.718;2024-02-28T12:14:12;21.67;;;11.70;;
11829;SDS011;5972;42.134;24.718;2024-02-28T12:16:42;18.23;;;11.38;;
11829;SDS011;5972;42.134;24.718;2024-02-28T12:19:11;21.17;;;10.43;;
11829;SDS011;5972;42.134;24.718;2024-02-28T12:21:41;19.98;;;11.07;;
11829;SDS011;5972;42.134;24.718;2024-02-28T12:24:09;24.42;;;11.40;;
11829;SDS011;5972;42.134;24.718;2024-02-28T12:26:36;20.95;;;10.40;;
11829;SDS011;5972;42.134;24.718;2024-02-28T12:29:04;20.23;;;11.43;;
11829;SDS011;5972;42.134;24.718;2024-02-28T12:31:34;23.92;;;11.93;;
11829;SDS011;5972;42.134;24.718;2024-02-28T12:34:02;21.98;;;11.73;;
11829;SDS011;5972;42.134;24.718;2024-02-28T12:36:29;18.58;;;11.35;;
11829;SDS011;5972;42.134;24.718;2024-02-28T12:38:59;16.40;;;10.38;;
11829;SDS011;5972;42.134;24.718;2024-02-28T12:41:33;20.05;;;10.60;;
11829;SDS011;5972;42.134;24.718;2024-02-28T12:44:04;21.77;;;10.75;;
11829;SDS011;5972;42.134;24.718;2024-02-28T12:46:38;21.13;;;11.23;;
11829;SDS011;5972;42.134;24.718;2024-02-28T12:49:11;18.08;;;11.32;;
11829;SDS011;5972;42.134;24.718;2024-02-28T12:51:40;20.27;;;11.40;;
11829;SDS011;5972;42.134;24.718;2024-02-28T12:54:13;23.42;;;11.98;;
11829;SDS011;5972;42.134;24.718;2024-02-28T12:56:43;19.23;;;11.38;;
11829;SDS011;5972;42.134;24.718;2024-02-28T12:59:16;17.20;;;10.88;;
11829;SDS011;5972;42.134;24.718;2024-02-28T13:01:47;20.90;;;10.95;;
11829;SDS011;5972;42.134;24.718;2024-02-28T13:04:14;24.75;;;11.75;;
11829;SDS011;5972;42.134;24.718;2024-02-28T13:06:41;20.65;;;11.60;;
11829;SDS011;5972;42.134;24.718;2024-02-28T13:09:08;18.02;;;10.93;;
11829;SDS011;5972;42.134;24.718;2024-02-28T13:11:39;22.42;;;11.02;;
11829;SDS011;5972;42.134;24.718;2024-02-28T13:14:06;17.73;;;11.18;;
11829;SDS011;5972;42.134;24.718;2024-02-28T13:16:34;24.45;;;11.90;;
11829;SDS011;5972;42.134;24.718;2024-02-28T13:19:07;21.00;;;11.27;;
11829;SDS011;5972;42.134;24.718;2024-02-28T13:21:34;20.13;;;10.88;;
11829;SDS011;5972;42.134;24.718;2024-02-28T13:24:02;24.02;;;11.10;;
11829;SDS011;5972;42.134;24.718;2024-02-28T13:26:34;19.52;;;10.68;;
11829;SDS011;5972;42.134;24.718;2024-02-28T13:29:06;17.13;;;11.43;;
11829;SDS011;5972;42.134;24.718;2024-02-28T13:31:33;15.25;;;10.65;;
11829;SDS011;5972;42.134;24.718;2024-02-28T13:34:01;17.75;;;10.60;;
11829;SDS011;5972;42.134;24.718;2024-02-28T13:36:28;19.25;;;11.90;;
11829;SDS011;5972;42.134;24.718;2024-02-28T13:38:57;20.42;;;11.73;;
11829;SDS011;5972;42.134;24.718;2024-02-28T13:41:24;19.95;;;11.60;;
11829;SDS011;5972;42.134;24.718;2024-02-28T13:43:51;18.23;;;11.65;;
11829;SDS011;5972;42.134;24.718;2024-02-28T13:46:20;18.60;;;11.52;;
11829;SDS011;5972;42.134;24.718;2024-02-28T13:48:47;16.83;;;11.15;;
11829;SDS011;5972;42.134;24.718;2024-02-28T13:51:14;24.45;;;11.65;;
11829;SDS011;5972;42.134;24.718;2024-02-28T13:53:41;16.73;;;10.95;;
11829;SDS011;5972;42.134;24.718;2024-02-28T13:56:09;26.20;;;12.50;;
11829;SDS011;5972;42.134;24.718;2024-02-28T13:58:36;23.42;;;12.38;;
11829;SDS011;5972;42.134;24.718;2024-02-28T14:01:03;20.17;;;11.00;;
11829;SDS011;5972;42.134;24.718;2024-02-28T14:03:33;19.90;;;11.70;;
11829;SDS011;5972;42.134;24.718;2024-02-28T14:06:00;20.02;;;11.73;;
11829;SDS011;5972;42.134;24.718;2024-02-28T14:08:27;22.08;;;10.80;;
11829;SDS011;5972;42.134;24.718;2024-02-28T14:10:54;17.92;;;10.63;;
11829;SDS011;5972;42.134;24.718;2024-02-28T14:13:21;27.60;;;11.82;;
11829;SDS011;5972;42.134;24.718;2024-02-28T14:15:48;20.98;;;11.45;;
11829;SDS011;5972;42.134;24.718;2024-02-28T14:18:16;23.15;;;11.13;;
11829;SDS011;5972;42.134;24.718;2024-02-28T14:20:48;19.10;;;11.43;;
11829;SDS011;5972;42.134;24.718;2024-02-28T14:23:28;24.35;;;11.93;;
11829;SDS011;5972;42.134;24.718;2024-02-28T14:25:57;18.30;;;11.07;;
11829;SDS011;5972;42.134;24.718;2024-02-28T14:28:27;22.42;;;11.18;;
11829;SDS011;5972;42.134;24.718;2024-02-28T14:30:54;20.42;;;11.25;;
11829;SDS011;5972;42.134;24.718;2024-02-28T14:33:21;17.13;;;10.95;;
11829;SDS011;5972;42.134;24.718;2024-02-28T14:35:50;24.05;;;11.23;;
11829;SDS011;5972;42.134;24.718;2024-02-28T14:38:17;22.42;;;11.32;;
11829;SDS011;5972;42.134;24.718;2024-02-28T14:40:44;21.90;;;11.90;;
11829;SDS011;5972;42.134;24.718;2024-02-28T14:43:13;21.67;;;12.02;;
11829;SDS011;5972;42.134;24.718;2024-02-28T14:45:42;18.92;;;10.52;;